Time;durP1;ratioP1;P1;durP2;ratioP2;P2;SDS_P1;SDS_P2;PMS_P1;PMS_P2;Temp;Humidity;BMP_temperature;BMP_pressure;BME280_temperature;BME280_humidity;BME280_pressure;Samples;Min_cycle;Max_cycle;Signal;HPM_P1;HPM_P2
2023/11/27 00:01:17;;;;;;;;;;;5.60;1.00;;;;;;5056486;28;19905;-73
2023/11/27 00:03:43;;;;;;;;;;;5.60;1.00;;;;;;5056247;28;20003;-73
2023/11/27 00:06:09;;;;;;;;;;;5.70;1.00;;;;;;5056704;28;19915;-73
2023/11/27 00:08:35;;;;;;;;;;;5.60;1.00;;;;;;5056548;28;20009;-73
2023/11/27 00:11:00;;;;;;;;;;;5.50;1.00;;;;;;5042901;28;19909;-73
2023/11/27 00:22:35;;;;;;;;;;;5.20;1.00;;;;;;5045185;28;19954;-80
2023/11/27 00:25:27;;;;;;;;;;;5.20;1.00;;;;;;5056491;28;19997;-80
2023/11/27 00:27:52;;;;;;;;;;;5.30;1.00;;;;;;5069106;28;19909;-73
2023/11/27 00:30:18;;;;;;;;;;;5.20;1.00;;;;;;5055706;28;20000;-73
2023/11/27 00:32:44;;;;;;;;;;;5.20;1.00;;;;;;5054998;28;19944;-72
2023/11/27 00:35:10;;;;;;;;;;;5.20;1.00;;;;;;5043204;28;19905;-73
2023/11/27 00:37:39;;;;;;;;;;;5.20;1.00;;;;;;5063739;28;19908;-73
2023/11/27 00:40:05;;;;;;;;;;;5.10;1.00;;;;;;5041785;28;19908;-73
2023/11/27 00:42:31;;;;;;;;;;;5.10;1.00;;;;;;5052860;28;20046;-74
2023/11/27 00:44:56;;;;;;;;;;;5.10;1.00;;;;;;5056043;28;19955;-73
2023/11/27 00:47:22;;;;;;;;;;;5.10;1.00;;;;;;5054743;28;19991;-73
2023/11/27 00:49:48;;;;;;;;;;;5.10;1.00;;;;;;5048239;28;19967;-73
2023/11/27 00:52:15;;;;;;;;;;;;;;;;;;5053708;28;19913;-73
2023/11/27 00:54:47;;;;;;;;;;;5.00;1.00;;;;;;5060699;28;19952;-73
2023/11/27 00:57:16;;;;;;;;;;;5.00;1.00;;;;;;5055756;28;19904;-73
2023/11/27 01:02:45;;;;;;;;;;;5.00;1.00;;;;;;5058183;28;19916;-80
2023/11/27 01:08:45;;;;;;;;;;;5.00;1.00;;;;;;5059179;28;20004;-80
2023/11/27 01:20:20;;;;;;;;;;;5.00;1.00;;;;;;5048210;28;19953;-82
2023/11/27 01:28:52;;;;;;;;;;;5.10;1.00;;;;;;5059298;28;20363;-73
2023/11/27 01:31:18;;;;;;;;;;;5.00;1.00;;;;;;5052041;28;19909;-73
2023/11/27 01:33:45;;;;;;;;;;;5.10;1.00;;;;;;5055221;28;19979;-73
2023/11/27 01:36:11;;;;;;;;;;;5.00;1.00;;;;;;5054839;28;19916;-73
2023/11/27 01:38:45;;;;;;;;;;;4.90;1.00;;;;;;5054968;28;19909;-73
2023/11/27 01:41:11;;;;;;;;;;;4.90;1.00;;;;;;5054567;28;19961;-73
2023/11/27 01:46:47;;;;;;;;;;;4.90;1.00;;;;;;5047393;28;19978;-80
2023/11/27 01:55:22;;;;;;;;;;;4.90;1.00;;;;;;5027252;28;20380;-80
2023/11/27 01:57:48;;;;;;;;;;;5.00;1.00;;;;;;5033032;28;19905;-80
2023/11/27 02:00:14;;;;;;;;;;;5.00;1.00;;;;;;5028219;28;19909;-80
2023/11/27 02:02:48;;;;;;;;;;;5.00;1.00;;;;;;5032248;28;20010;-80
2023/11/27 02:05:14;;;;;;;;;;;5.00;1.00;;;;;;5033308;28;20606;-80
2023/11/27 02:10:42;;;;;;;;;;;5.00;1.00;;;;;;5034474;28;19916;-80
2023/11/27 02:13:15;;;;;;;;;;;5.00;1.00;;;;;;5021637;28;19905;-80
2023/11/27 02:15:41;;;;;;;;;;;5.10;1.00;;;;;;5033999;28;19913;-73
2023/11/27 02:18:07;;;;;;;;;;;5.10;1.00;;;;;;5033905;28;19905;-73
2023/11/27 02:20:39;;;;;;;;;;;5.10;1.00;;;;;;5034158;28;19916;-73
2023/11/27 02:23:12;;;;;;;;;;;5.10;1.00;;;;;;5033144;28;19909;-72
2023/11/27 02:25:38;;;;;;;;;;;5.00;1.00;;;;;;5034096;28;19955;-73
2023/11/27 02:28:03;;;;;;;;;;;5.10;1.00;;;;;;5029851;28;19909;-73
2023/11/27 02:34:03;;;;;;;;;;;5.10;1.00;;;;;;5034223;28;20456;-80
2023/11/27 02:39:51;;;;;;;;;;;5.10;1.00;;;;;;5021524;28;20011;-80
2023/11/27 02:48:22;;;;;;;;;;;5.00;1.00;;;;;;5033881;28;19956;-80
2023/11/27 02:56:54;;;;;;;;;;;5.10;1.00;;;;;;5031724;28;20598;-80
2023/11/27 03:08:28;;;;;;;;;;;5.20;1.00;;;;;;5033734;28;19912;-80
2023/11/27 03:11:03;;;;;;;;;;;5.20;1.00;;;;;;5034039;28;20004;-80
2023/11/27 03:13:51;;;;;;;;;;;5.20;1.00;;;;;;5033567;28;20287;-80
2023/11/27 03:19:45;;;;;;;;;;;5.20;1.00;;;;;;5033729;28;20387;-80
2023/11/27 03:25:14;;;;;;;;;;;5.00;1.00;;;;;;5023814;28;20333;-80
2023/11/27 03:33:45;;;;;;;;;;;5.00;1.00;;;;;;5033793;28;19912;-80
2023/11/27 03:36:33;;;;;;;;;;;5.00;1.00;;;;;;5033607;28;19909;-80
2023/11/27 03:42:02;;;;;;;;;;;5.10;1.00;;;;;;5033281;28;19951;-80
2023/11/27 03:50:57;;;;;;;;;;;2.90;1.00;;;;;;5033389;28;19916;-80
2023/11/27 03:56:51;;;;;;;;;;;4.90;1.00;;;;;;5062961;28;19916;-80
2023/11/27 03:59:20;;;;;;;;;;;4.90;1.00;;;;;;5053468;28;19908;-80
2023/11/27 04:01:51;;;;;;;;;;;4.90;1.00;;;;;;5053045;28;19909;-73
2023/11/27 04:04:27;;;;;;;;;;;4.90;1.00;;;;;;5052585;28;19916;-73
2023/11/27 04:06:54;;;;;;;;;;;;;;;;;;5052699;28;20007;-73
2023/11/27 04:09:21;;;;;;;;;;;5.00;1.00;;;;;;5054645;28;19912;-73
2023/11/27 04:11:52;;;;;;;;;;;;;;;;;;5056519;28;19996;-73
2023/11/27 04:14:18;;;;;;;;;;;4.90;1.00;;;;;;5051256;28;19908;-73
2023/11/27 04:16:43;;;;;;;;;;;4.90;1.00;;;;;;5056014;28;19920;-73
2023/11/27 04:19:09;;;;;;;;;;;5.00;1.00;;;;;;5055604;28;19915;-73
2023/11/27 04:21:35;;;;;;;;;;;5.00;1.00;;;;;;5062572;28;19939;-73
2023/11/27 04:24:03;;;;;;;;;;;5.00;1.00;;;;;;5049884;28;19917;-73
2023/11/27 04:26:29;;;;;;;;;;;4.90;1.00;;;;;;5068475;28;19943;-74
2023/11/27 04:28:54;;;;;;;;;;;4.90;1.00;;;;;;5057156;28;19940;-73
2023/11/27 04:40:29;;;;;;;;;;;4.70;1.00;;;;;;5069310;28;19915;-80
2023/11/27 04:45:57;;;;;;;;;;;4.80;1.00;;;;;;5054620;28;20416;-73
2023/11/27 04:48:23;;;;;;;;;;;4.80;1.00;;;;;;5056073;28;19913;-73
2023/11/27 04:50:49;;;;;;;;;;;4.60;1.00;;;;;;5055837;28;20023;-73
2023/11/27 04:53:14;;;;;;;;;;;4.60;1.00;;;;;;5064448;28;19912;-74
2023/11/27 04:55:40;;;;;;;;;;;4.60;1.00;;;;;;5059134;28;19912;-73
2023/11/27 04:58:06;;;;;;;;;;;4.60;1.00;;;;;;5066910;28;19958;-74
2023/11/27 05:09:22;;;;;;;;;;;4.50;1.00;;;;;;5055369;28;19916;-80
2023/11/27 05:14:51;;;;;;;;;;;4.40;1.00;;;;;;5054861;28;20414;-80
2023/11/27 05:17:17;;;;;;;;;;;4.40;1.00;;;;;;5055439;28;19955;-73
2023/11/27 05:19:43;;;;;;;;;;;4.40;1.00;;;;;;5053263;28;19917;-73
2023/11/27 05:22:08;;;;;;;;;;;4.40;1.00;;;;;;5054617;28;19923;-73
2023/11/27 05:24:34;;;;;;;;;;;4.40;1.00;;;;;;5054702;28;19905;-73
2023/11/27 05:27:00;;;;;;;;;;;4.40;1.00;;;;;;5056623;28;19905;-74
2023/11/27 05:29:34;;;;;;;;;;;4.40;1.00;;;;;;5057667;28;19908;-73
2023/11/27 05:41:12;;;;;;;;;;;4.40;1.00;;;;;;5035801;28;20370;-80
2023/11/27 05:46:22;;;;;;;;;;;4.40;1.00;;;;;;5055244;28;19927;-79
2023/11/27 05:49:21;;;;;;;;;;;4.40;1.00;;;;;;5055338;28;20356;-79
2023/11/27 06:04:03;;;;;;;;;;;4.30;1.00;;;;;;5047549;28;19954;-80
2023/11/27 06:15:57;;;;;;;;;;;4.20;1.00;;;;;;5062398;28;20428;-80
2023/11/27 06:18:23;;;;;;;;;;;;;;;;;;5058001;28;19987;-72
2023/11/27 06:20:49;;;;;;;;;;;4.30;1.00;;;;;;5066805;28;19913;-73
2023/11/27 06:23:14;;;;;;;;;;;4.40;1.00;;;;;;5057036;28;19912;-73
2023/11/27 06:25:40;;;;;;;;;;;4.40;1.00;;;;;;5056029;28;19913;-72
2023/11/27 06:28:13;;;;;;;;;;;4.50;1.00;;;;;;5034720;28;20042;-73
2023/11/27 06:30:41;;;;;;;;;;;4.40;1.00;;;;;;5049553;28;19908;-73
2023/11/27 06:33:07;;;;;;;;;;;4.50;1.00;;;;;;5049729;28;19909;-72
2023/11/27 06:35:34;;;;;;;;;;;4.50;1.00;;;;;;5051356;28;19927;-72
2023/11/27 06:37:59;;;;;;;;;;;4.50;1.00;;;;;;5056093;28;19930;-73
2023/11/27 06:40:25;;;;;;;;;;;4.50;1.00;;;;;;5059218;28;20015;-72
2023/11/27 06:42:50;;;;;;;;;;;4.50;1.00;;;;;;5050606;28;20010;-73
2023/11/27 06:45:16;;;;;;;;;;;;;;;;;;5047206;28;19909;-72
2023/11/27 06:47:42;;;;;;;;;;;4.40;1.00;;;;;;5053876;28;19908;-79
2023/11/27 06:50:09;;;;;;;;;;;;;;;;;;5063639;28;19909;-79
2023/11/27 06:55:46;;;;;;;;;;;4.50;1.00;;;;;;5048649;28;20031;-81
2023/11/27 06:58:21;;;;;;;;;;;4.40;1.00;;;;;;5053519;28;19909;-79
2023/11/27 07:01:21;;;;;;;;;;;4.40;1.00;;;;;;5053624;28;20548;-80
2023/11/27 07:04:21;;;;;;;;;;;4.50;1.00;;;;;;5049619;28;19967;-80
2023/11/27 07:06:51;;;;;;;;;;;4.50;1.00;;;;;;5045912;28;20029;-79
2023/11/27 07:09:56;;;;;;;;;;;4.50;1.00;;;;;;5053757;28;19909;-79
2023/11/27 07:15:57;;;;;;;;;;;4.60;1.00;;;;;;5058148;28;19920;-80
2023/11/27 07:18:57;;;;;;;;;;;4.60;1.00;;;;;;5056041;28;19920;-79
2023/11/27 07:21:33;;;;;;;;;;;4.60;1.00;;;;;;5050714;28;19955;-80
2023/11/27 07:24:21;;;;;;;;;;;4.60;1.00;;;;;;5050444;28;19963;-80
2023/11/27 07:30:09;;;;;;;;;;;4.50;1.00;;;;;;4990588;28;19952;-80
2023/11/27 07:32:35;;;;;;;;;;;;;;;;;;4993596;28;19913;-73
2023/11/27 07:35:02;;;;;;;;;;;4.40;1.00;;;;;;4991461;28;20289;-73
2023/11/27 07:37:27;;;;;;;;;;;;;;;;;;4997307;28;20312;-73
2023/11/27 07:39:57;;;;;;;;;;;4.50;1.00;;;;;;4995828;28;20063;-73
2023/11/27 07:42:23;;;;;;;;;;;4.70;1.00;;;;;;4992852;28;19918;-73
2023/11/27 07:44:49;;;;;;;;;;;4.70;1.00;;;;;;4995216;28;19937;-73
2023/11/27 07:47:27;;;;;;;;;;;4.70;1.00;;;;;;4997999;28;19920;-80
2023/11/27 07:49:57;;;;;;;;;;;4.70;1.00;;;;;;4997348;28;19922;-80
2023/11/27 07:55:51;;;;;;;;;;;4.70;1.00;;;;;;4962894;28;20392;-80
2023/11/27 07:58:51;;;;;;;;;;;4.80;1.00;;;;;;4964360;28;19917;-79
2023/11/27 08:01:40;;;;;;;;;;;4.80;1.00;;;;;;4993702;28;19918;-80
2023/11/27 08:04:06;;;;;;;;;;;4.80;1.00;;;;;;4984442;28;19914;-73
2023/11/27 08:06:31;;;;;;;;;;;4.70;1.00;;;;;;4978292;28;19918;-73
2023/11/27 08:08:58;;;;;;;;;;;4.80;1.00;;;;;;4989767;28;19909;-73
2023/11/27 08:11:33;;;;;;;;;;;4.90;1.00;;;;;;4983262;28;19937;-73
2023/11/27 08:14:03;;;;;;;;;;;;;;;;;;4961866;28;20371;-73
2023/11/27 08:16:29;;;;;;;;;;;4.80;1.00;;;;;;4979118;28;19914;-73
2023/11/27 08:18:58;;;;;;;;;;;4.80;1.00;;;;;;4973549;28;19917;-73
2023/11/27 08:21:24;;;;;;;;;;;4.80;1.00;;;;;;4987335;28;20349;-73
2023/11/27 08:23:51;;;;;;;;;;;4.80;1.00;;;;;;4981874;28;20254;-73
2023/11/27 08:26:21;;;;;;;;;;;;;;;;;;4971786;28;20377;-73
2023/11/27 08:28:47;;;;;;;;;;;4.90;1.00;;;;;;4994179;28;19917;-73
2023/11/27 08:31:17;;;;;;;;;;;4.90;1.00;;;;;;4991466;28;19917;-73
2023/11/27 08:36:45;;;;;;;;;;;4.90;1.00;;;;;;4984659;28;19961;-79
2023/11/27 08:39:27;;;;;;;;;;;5.00;1.00;;;;;;4988924;28;19910;-79
2023/11/27 08:41:53;;;;;;;;;;;4.90;1.00;;;;;;4981803;28;19914;-79
2023/11/27 08:44:52;;;;;;;;;;;5.00;1.00;;;;;;4977696;28;20011;-79
2023/11/27 08:47:21;;;;;;;;;;;5.00;1.00;;;;;;4977468;28;19911;-79
2023/11/27 08:49:51;;;;;;;;;;;5.00;1.00;;;;;;4990773;28;20352;-78
2023/11/27 08:52:27;;;;;;;;;;;5.00;1.00;;;;;;4977409;28;19910;-79
2023/11/27 08:54:53;;;;;;;;;;;4.90;1.00;;;;;;4982855;28;20357;-79
2023/11/27 08:57:27;;;;;;;;;;;4.90;1.00;;;;;;5007037;28;19937;-79
2023/11/27 09:03:09;;;;;;;;;;;4.70;1.00;;;;;;5000195;28;20040;-80
2023/11/27 09:11:46;;;;;;;;;;;4.60;1.00;;;;;;4996344;28;19983;-80
2023/11/27 09:14:27;;;;;;;;;;;4.40;1.00;;;;;;4996218;28;19920;-80
2023/11/27 09:17:04;;;;;;;;;;;4.40;1.00;;;;;;5014786;28;19916;-80
2023/11/27 09:19:40;;;;;;;;;;;4.40;1.00;;;;;;5016419;28;19917;-80
2023/11/27 09:22:27;;;;;;;;;;;4.40;1.00;;;;;;5022675;28;19914;-80
2023/11/27 09:25:27;;;;;;;;;;;4.60;1.00;;;;;;4996064;28;19910;-80
2023/11/27 09:28:27;;;;;;;;;;;4.70;1.00;;;;;;4998382;28;19925;-79
2023/11/27 09:31:03;;;;;;;;;;;4.60;1.00;;;;;;5015797;28;19910;-79
2023/11/27 09:33:29;;;;;;;;;;;4.60;1.00;;;;;;5014242;28;20294;-73
2023/11/27 09:35:57;;;;;;;;;;;4.70;1.00;;;;;;5011528;28;19909;-74
2023/11/27 09:38:23;;;;;;;;;;;4.70;1.00;;;;;;5018544;28;19920;-73
2023/11/27 09:40:49;;;;;;;;;;;4.70;1.00;;;;;;5015176;28;19914;-73
2023/11/27 09:43:14;;;;;;;;;;;4.70;1.00;;;;;;5013662;28;19921;-73
2023/11/27 09:45:45;;;;;;;;;;;4.70;1.00;;;;;;5014739;28;19936;-73
2023/11/27 09:48:28;;;;;;;;;;;4.50;1.00;;;;;;5023996;28;19921;-80
2023/11/27 09:50:58;;;;;;;;;;;;;;;;;;5017435;28;19920;-80
2023/11/27 09:53:45;;;;;;;;;;;4.70;1.00;;;;;;5028726;28;19914;-80
2023/11/27 09:59:51;;;;;;;;;;;4.50;1.00;;;;;;5014802;28;19976;-80
2023/11/27 10:02:22;;;;;;;;;;;4.40;1.00;;;;;;5015030;28;19910;-80
2023/11/27 10:04:49;;;;;;;;;;;4.40;1.00;;;;;;5030446;28;19916;-73
2023/11/27 10:07:14;;;;;;;;;;;4.30;1.00;;;;;;5019764;28;19921;-73
2023/11/27 10:09:45;;;;;;;;;;;4.20;1.00;;;;;;5019117;28;20360;-73
2023/11/27 10:12:24;;;;;;;;;;;4.10;1.00;;;;;;5023342;28;19917;-73
2023/11/27 10:14:52;;;;;;;;;;;4.10;1.00;;;;;;5014296;28;19921;-73
2023/11/27 10:17:17;;;;;;;;;;;4.10;1.00;;;;;;5030955;28;19913;-73
2023/11/27 10:19:52;;;;;;;;;;;4.20;1.00;;;;;;5014886;28;19913;-80
2023/11/27 10:22:29;;;;;;;;;;;4.20;1.00;;;;;;5014271;28;19931;-80
2023/11/27 10:24:59;;;;;;;;;;;4.20;1.00;;;;;;5014273;28;19909;-80
2023/11/27 10:27:57;;;;;;;;;;;4.10;1.00;;;;;;5005578;28;19917;-80
2023/11/27 10:30:24;;;;;;;;;;;4.10;1.00;;;;;;5014508;28;19913;-80
2023/11/27 10:32:57;;;;;;;;;;;4.10;1.00;;;;;;5029406;28;20254;-80
2023/11/27 10:35:25;;;;;;;;;;;4.20;1.00;;;;;;5014412;28;20266;-73
2023/11/27 10:37:54;;;;;;;;;;;4.30;1.00;;;;;;5013996;28;19921;-73
2023/11/27 10:40:20;;;;;;;;;;;4.20;1.00;;;;;;5013916;28;19913;-73
2023/11/27 10:42:48;;;;;;;;;;;4.10;1.00;;;;;;5016332;28;19916;-73
2023/11/27 10:45:22;;;;;;;;;;;4.20;1.00;;;;;;5024105;28;19909;-73
2023/11/27 10:47:49;;;;;;;;;;;4.30;1.00;;;;;;5027350;28;19921;-73
2023/11/27 10:50:16;;;;;;;;;;;4.50;1.00;;;;;;5019056;28;20347;-73
2023/11/27 10:52:44;;;;;;;;;;;4.40;1.00;;;;;;5014860;28;20004;-73
2023/11/27 10:55:14;;;;;;;;;;;4.30;1.00;;;;;;5013368;28;19931;-73
2023/11/27 10:57:40;;;;;;;;;;;4.30;1.00;;;;;;5025839;28;19916;-73
2023/11/27 11:00:28;;;;;;;;;;;4.10;1.00;;;;;;5013587;28;20000;-73
2023/11/27 11:03:00;;;;;;;;;;;4.20;1.00;;;;;;5010923;28;19921;-73
2023/11/27 11:05:28;;;;;;;;;;;4.10;1.00;;;;;;5010945;28;19914;-73
2023/11/27 11:07:55;;;;;;;;;;;3.90;1.00;;;;;;5021946;28;19913;-73
2023/11/27 11:10:26;;;;;;;;;;;3.80;1.00;;;;;;5011012;28;20305;-73
2023/11/27 11:12:57;;;;;;;;;;;;;;;;;;5023548;28;19975;-73
2023/11/27 11:15:56;;;;;;;;;;;3.80;1.00;;;;;;5018595;28;19944;-73
2023/11/27 11:18:22;;;;;;;;;;;;;;;;;;4976935;28;19921;-73
2023/11/27 11:21:05;;;;;;;;;;;3.80;1.00;;;;;;4983321;28;20098;-73
2023/11/27 11:23:48;;;;;;;;;;;3.80;1.00;;;;;;4980409;28;20414;-73
2023/11/27 11:26:32;;;;;;;;;;;3.70;1.00;;;;;;4974486;28;19924;-73
2023/11/27 11:29:21;;;;;;;;;;;3.70;1.00;;;;;;4986593;28;19921;-73
2023/11/27 11:31:47;;;;;;;;;;;3.80;1.00;;;;;;5007474;28;19913;-72
2023/11/27 11:34:22;;;;;;;;;;;3.80;1.00;;;;;;4994852;28;19914;-78
2023/11/27 11:36:53;;;;;;;;;;;3.70;1.00;;;;;;4996149;28;19934;-75
2023/11/27 11:39:19;;;;;;;;;;;3.60;1.00;;;;;;4995922;28;19910;-75
2023/11/27 11:41:45;;;;;;;;;;;3.60;1.00;;;;;;4996146;28;20361;-75
2023/11/27 11:44:21;;;;;;;;;;;3.60;1.00;;;;;;5007782;28;20380;-75
2023/11/27 11:46:58;;;;;;;;;;;3.60;1.00;;;;;;4995864;28;19964;-75
2023/11/27 11:49:24;;;;;;;;;;;3.50;1.00;;;;;;4996397;28;19913;-72
2023/11/27 11:52:02;;;;;;;;;;;3.50;1.00;;;;;;5011342;28;19914;-73
2023/11/27 11:54:28;;;;;;;;;;;;;;;;;;5009980;28;19913;-73
2023/11/27 11:57:10;;;;;;;;;;;3.40;1.00;;;;;;5016911;28;19909;-73
2023/11/27 11:59:37;;;;;;;;;;;3.50;1.00;;;;;;5017040;28;20004;-73
2023/11/27 12:02:10;;;;;;;;;;;3.50;1.00;;;;;;5017085;28;19916;-73
2023/11/27 12:04:57;;;;;;;;;;;3.30;1.00;;;;;;5033701;28;19936;-78
2023/11/27 12:07:28;;;;;;;;;;;3.30;1.00;;;;;;5029857;28;19910;-78
2023/11/27 12:09:57;;;;;;;;;;;;;;;;;;5017023;28;20337;-76
2023/11/27 12:12:22;;;;;;;;;;;3.40;1.00;;;;;;5017141;28;19913;-76
2023/11/27 12:15:00;;;;;;;;;;;3.30;1.00;;;;;;5016907;28;19921;-76
2023/11/27 12:17:44;;;;;;;;;;;3.20;1.00;;;;;;5016971;28;20393;-76
2023/11/27 12:20:11;;;;;;;;;;;3.20;1.00;;;;;;5015905;28;19918;-76
2023/11/27 12:22:52;;;;;;;;;;;3.30;1.00;;;;;;5019189;28;19955;-77
2023/11/27 12:25:27;;;;;;;;;;;3.30;1.00;;;;;;5016302;28;19960;-77
2023/11/27 12:28:15;;;;;;;;;;;3.30;1.00;;;;;;5002800;28;19928;-77
2023/11/27 12:30:51;;;;;;;;;;;3.30;1.00;;;;;;5012756;28;19925;-77
2023/11/27 12:33:28;;;;;;;;;;;3.20;1.00;;;;;;5016494;28;19910;-76
2023/11/27 12:35:53;;;;;;;;;;;3.00;1.00;;;;;;5016682;28;19909;-74
2023/11/27 12:38:24;;;;;;;;;;;3.10;1.00;;;;;;5017977;28;19914;-74
2023/11/27 12:40:51;;;;;;;;;;;3.00;1.00;;;;;;5016168;28;20716;-73
2023/11/27 12:43:21;;;;;;;;;;;3.10;1.00;;;;;;5022397;28;19909;-74
2023/11/27 12:45:57;;;;;;;;;;;3.10;1.00;;;;;;5035829;28;19919;-74
2023/11/27 12:48:23;;;;;;;;;;;3.10;1.00;;;;;;5025689;28;20246;-73
2023/11/27 12:50:52;;;;;;;;;;;3.20;1.00;;;;;;5019980;28;19913;-73
2023/11/27 12:53:20;;;;;;;;;;;3.30;1.00;;;;;;5035690;28;20040;-72
2023/11/27 12:55:48;;;;;;;;;;;;;;;;;;5028541;28;19996;-72
2023/11/27 12:58:17;;;;;;;;;;;3.00;1.00;;;;;;5023349;28;19992;-73
2023/11/27 13:00:52;;;;;;;;;;;3.10;1.00;;;;;;5015273;28;20314;-73
2023/11/27 13:03:22;;;;;;;;;;;3.10;1.00;;;;;;5015802;28;19913;-73
2023/11/27 13:05:59;;;;;;;;;;;2.90;1.00;;;;;;5016301;28;19957;-79
2023/11/27 13:08:32;;;;;;;;;;;2.70;1.00;;;;;;5016248;28;19917;-80
2023/11/27 13:10:59;;;;;;;;;;;2.60;1.00;;;;;;5015481;28;19960;-78
2023/11/27 13:13:29;;;;;;;;;;;2.60;1.00;;;;;;5015662;28;19913;-76
2023/11/27 13:16:30;;;;;;;;;;;2.60;1.00;;;;;;5016080;28;20000;-77
2023/11/27 13:18:55;;;;;;;;;;;2.50;1.00;;;;;;4996537;28;20336;-76
2023/11/27 13:21:21;;;;;;;;;;;2.50;1.00;;;;;;5011241;28;20022;-72
2023/11/27 13:23:53;;;;;;;;;;;2.50;1.00;;;;;;5015114;28;19913;-72
2023/11/27 13:26:27;;;;;;;;;;;2.50;1.00;;;;;;5017946;28;19913;-72
2023/11/27 13:29:00;;;;;;;;;;;2.40;1.00;;;;;;5014116;28;20292;-72
2023/11/27 13:31:26;;;;;;;;;;;2.30;1.00;;;;;;5015497;28;19924;-72
2023/11/27 13:33:51;;;;;;;;;;;2.30;1.00;;;;;;5023416;28;19918;-72
2023/11/27 13:36:20;;;;;;;;;;;2.40;1.00;;;;;;5014964;28;19914;-72
2023/11/27 13:38:49;;;;;;;;;;;2.20;1.00;;;;;;5015118;28;19913;-72
2023/11/27 13:41:15;;;;;;;;;;;2.30;1.00;;;;;;5011466;28;20454;-72
2023/11/27 13:43:41;;;;;;;;;;;2.30;1.00;;;;;;5014709;28;19914;-72
2023/11/27 13:46:11;;;;;;;;;;;2.30;1.00;;;;;;5014714;28;20543;-71
2023/11/27 13:48:37;;;;;;;;;;;2.30;1.00;;;;;;5014930;28;20011;-72
2023/11/27 13:51:14;;;;;;;;;;;2.20;1.00;;;;;;5012039;28;20416;-72
2023/11/27 13:53:43;;;;;;;;;;;2.30;1.00;;;;;;4990587;28;19909;-72
2023/11/27 13:56:18;;;;;;;;;;;2.30;1.00;;;;;;5026767;28;19917;-73
2023/11/27 13:58:51;;;;;;;;;;;2.30;1.00;;;;;;5032671;28;19949;-73
2023/11/27 14:01:19;;;;;;;;;;;;;;;;;;5014585;28;20301;-72
2023/11/27 14:03:46;;;;;;;;;;;2.20;1.00;;;;;;5014087;28;20316;-72
2023/11/27 14:06:25;;;;;;;;;;;2.30;1.00;;;;;;4985976;28;20285;-76
2023/11/27 14:08:53;;;;;;;;;;;2.40;1.00;;;;;;5002774;28;20266;-77
2023/11/27 14:11:33;;;;;;;;;;;2.40;1.00;;;;;;5015064;28;19909;-77
2023/11/27 14:14:25;;;;;;;;;;;2.40;1.00;;;;;;5005982;28;19910;-77
2023/11/27 14:17:32;;;;;;;;;;;2.20;1.00;;;;;;5013168;28;19964;-77
2023/11/27 14:23:24;;;;;;;;;;;2.30;1.00;;;;;;5016888;28;19920;-73
2023/11/27 14:31:21;;;;;;;;;;;2.50;1.00;;;;;;5012817;28;20312;-73
2023/11/27 14:33:47;;;;;;;;;;;2.50;1.00;;;;;;5013373;28;19972;-74
2023/11/27 14:36:15;;;;;;;;;;;2.40;1.00;;;;;;5001313;28;20376;-72
2023/11/27 14:38:42;;;;;;;;;;;2.50;1.00;;;;;;5027457;28;19917;-77
2023/11/27 14:41:33;;;;;;;;;;;2.40;1.00;;;;;;4995196;28;19914;-77
2023/11/27 14:43:59;;;;;;;;;;;2.50;1.00;;;;;;5024469;28;19917;-73
2023/11/27 14:46:25;;;;;;;;;;;2.60;1.00;;;;;;5014220;28;19914;-73
2023/11/27 14:48:51;;;;;;;;;;;2.50;1.00;;;;;;5017837;28;19929;-73
2023/11/27 14:51:23;;;;;;;;;;;2.50;1.00;;;;;;5024237;28;19913;-77
2023/11/27 14:53:55;;;;;;;;;;;2.50;1.00;;;;;;5012628;28;20436;-79
2023/11/27 14:56:26;;;;;;;;;;;2.50;1.00;;;;;;5020664;28;20391;-78
2023/11/27 14:58:52;;;;;;;;;;;2.60;1.00;;;;;;5014808;28;19920;-78
2023/11/27 15:01:17;;;;;;;;;;;2.60;1.00;;;;;;5014368;28;19913;-78
2023/11/27 15:03:52;;;;;;;;;;;2.50;1.00;;;;;;5009752;28;19914;-79
2023/11/27 15:06:24;;;;;;;;;;;2.40;1.00;;;;;;5020022;28;20268;-74
2023/11/27 15:08:51;;;;;;;;;;;2.40;1.00;;;;;;5008088;28;19937;-79
2023/11/27 15:11:17;;;;;;;;;;;2.50;1.00;;;;;;5016237;28;19961;-79
2023/11/27 15:13:44;;;;;;;;;;;2.40;1.00;;;;;;5018256;28;20360;-79
2023/11/27 15:16:10;;;;;;;;;;;2.40;1.00;;;;;;5010827;28;19910;-79
2023/11/27 15:18:40;;;;;;;;;;;2.50;1.00;;;;;;5010593;28;19909;-79
2023/11/27 15:21:11;;;;;;;;;;;2.40;1.00;;;;;;5014269;28;19925;-79
2023/11/27 15:23:36;;;;;;;;;;;2.50;1.00;;;;;;5008078;28;19920;-73
2023/11/27 15:26:04;;;;;;;;;;;2.50;1.00;;;;;;5021621;28;20276;-75
2023/11/27 15:28:30;;;;;;;;;;;2.50;1.00;;;;;;5013654;28;19916;-74
2023/11/27 15:30:57;;;;;;;;;;;;;;;;;;5013195;28;19917;-74
2023/11/27 15:36:28;;;;;;;;;;;2.30;1.00;;;;;;5002545;28;20360;-72
2023/11/27 15:38:53;;;;;;;;;;;2.30;1.00;;;;;;5011962;28;20407;-72
2023/11/27 15:41:19;;;;;;;;;;;;;;;;;;5012896;28;20008;-72
2023/11/27 15:43:46;;;;;;;;;;;2.30;1.00;;;;;;5013249;28;19909;-75
2023/11/27 15:46:22;;;;;;;;;;;2.30;1.00;;;;;;5015748;28;19917;-73
2023/11/27 15:48:53;;;;;;;;;;;2.40;1.00;;;;;;5003495;28;19921;-75
2023/11/27 15:51:18;;;;;;;;;;;2.40;1.00;;;;;;5013443;28;20380;-72
2023/11/27 15:53:44;;;;;;;;;;;2.50;1.00;;;;;;5013921;28;19914;-73
2023/11/27 15:56:10;;;;;;;;;;;2.40;1.00;;;;;;5019883;28;19925;-72
2023/11/27 15:58:40;;;;;;;;;;;2.60;1.00;;;;;;5012285;28;19920;-73
2023/11/27 16:01:06;;;;;;;;;;;2.30;1.00;;;;;;5012528;28;19917;-72
2023/11/27 16:03:32;;;;;;;;;;;;;;;;;;5013728;28;20007;-73
2023/11/27 16:06:01;;;;;;;;;;;2.40;1.00;;;;;;5009289;28;19913;-73
2023/11/27 16:08:51;;;;;;;;;;;2.40;1.00;;;;;;5011584;28;19918;-78
2023/11/27 16:11:46;;;;;;;;;;;2.40;1.00;;;;;;5017228;28;20033;-78
2023/11/27 16:17:24;;;;;;;;;;;2.50;1.00;;;;;;5022668;28;19960;-79
2023/11/27 16:20:21;;;;;;;;;;;2.50;1.00;;;;;;5022852;28;19913;-80
2023/11/27 16:23:25;;;;;;;;;;;2.60;1.00;;;;;;5024852;28;19921;-81
2023/11/27 16:26:21;;;;;;;;;;;2.40;1.00;;;;;;5014907;28;19914;-81
2023/11/27 16:29:22;;;;;;;;;;;2.40;1.00;;;;;;5016842;28;20011;-81
2023/11/27 16:34:51;;;;;;;;;;;2.50;1.00;;;;;;5023478;28;19924;-80
2023/11/27 16:37:27;;;;;;;;;;;2.40;1.00;;;;;;5016147;28;19929;-76
2023/11/27 16:40:22;;;;;;;;;;;2.50;1.00;;;;;;5016415;28;19913;-80
2023/11/27 16:43:22;;;;;;;;;;;2.50;1.00;;;;;;5016320;28;19920;-77
2023/11/27 16:46:23;;;;;;;;;;;2.30;1.00;;;;;;5016782;28;19920;-78
2023/11/27 16:48:52;;;;;;;;;;;2.40;1.00;;;;;;5019869;28;19913;-79
2023/11/27 16:51:22;;;;;;;;;;;2.40;1.00;;;;;;5015178;28;19921;-78
2023/11/27 16:53:52;;;;;;;;;;;2.40;1.00;;;;;;5021199;28;20357;-77
2023/11/27 16:56:46;;;;;;;;;;;2.30;1.00;;;;;;5016010;28;19968;-78
2023/11/27 16:59:28;;;;;;;;;;;;;;;;;;5019304;28;20350;-77
2023/11/27 17:05:21;;;;;;;;;;;2.40;1.00;;;;;;5004826;28;19920;-78
2023/11/27 17:07:48;;;;;;;;;;;2.40;1.00;;;;;;5004577;28;19917;-72
2023/11/27 17:10:18;;;;;;;;;;;2.40;1.00;;;;;;5015999;28;19963;-72
2023/11/27 17:12:53;;;;;;;;;;;2.40;1.00;;;;;;5014852;28;20004;-72
2023/11/27 17:15:18;;;;;;;;;;;2.30;1.00;;;;;;5017174;28;19909;-72
2023/11/27 17:17:45;;;;;;;;;;;2.30;1.00;;;;;;5017596;28;19936;-72
2023/11/27 17:20:16;;;;;;;;;;;2.40;1.00;;;;;;5013051;28;20001;-73
2023/11/27 17:22:52;;;;;;;;;;;2.30;1.00;;;;;;5015669;28;19917;-76
2023/11/27 17:25:18;;;;;;;;;;;2.20;1.00;;;;;;5014006;28;19913;-75
2023/11/27 17:27:44;;;;;;;;;;;2.20;1.00;;;;;;5015861;28;19909;-74
2023/11/27 17:30:14;;;;;;;;;;;2.20;1.00;;;;;;5021723;28;20317;-74
2023/11/27 17:32:47;;;;;;;;;;;;;;;;;;5014267;28;19917;-74
2023/11/27 17:35:14;;;;;;;;;;;2.20;1.00;;;;;;5013144;28;19928;-72
2023/11/27 17:37:43;;;;;;;;;;;2.30;1.00;;;;;;5013628;28;19913;-72
2023/11/27 17:40:12;;;;;;;;;;;2.40;1.00;;;;;;5033006;28;20281;-72
2023/11/27 17:42:38;;;;;;;;;;;2.50;1.00;;;;;;5013164;28;20361;-73
2023/11/27 17:45:09;;;;;;;;;;;2.50;1.00;;;;;;5014805;28;19913;-72
2023/11/27 17:47:35;;;;;;;;;;;2.40;1.00;;;;;;5017412;28;20373;-73
2023/11/27 17:50:04;;;;;;;;;;;2.40;1.00;;;;;;5018527;28;19918;-72
2023/11/27 17:52:34;;;;;;;;;;;2.30;1.00;;;;;;5014389;28;19914;-73
2023/11/27 17:55:00;;;;;;;;;;;;;;;;;;5009315;28;19969;-78
2023/11/27 17:57:26;;;;;;;;;;;2.40;1.00;;;;;;5015499;28;19921;-73
2023/11/27 18:02:55;;;;;;;;;;;2.50;1.00;;;;;;5014414;28;20317;-72
2023/11/27 18:05:23;;;;;;;;;;;;;;;;;;5012870;28;19948;-73
2023/11/27 18:07:49;;;;;;;;;;;;;;;;;;5017571;28;19914;-73
2023/11/27 18:10:25;;;;;;;;;;;2.40;1.00;;;;;;5015793;28;19910;-83
2023/11/27 18:12:55;;;;;;;;;;;2.40;1.00;;;;;;5014899;28;19932;-81
2023/11/27 18:15:21;;;;;;;;;;;2.50;1.00;;;;;;4997088;28;19909;-81
2023/11/27 18:18:22;;;;;;;;;;;2.50;1.00;;;;;;5017376;28;19920;-82
2023/11/27 18:20:58;;;;;;;;;;;2.60;1.00;;;;;;5009846;28;19913;-81
2023/11/27 18:23:40;;;;;;;;;;;2.60;1.00;;;;;;5018555;28;20016;-81
2023/11/27 18:26:22;;;;;;;;;;;2.60;1.00;;;;;;5019505;28;20000;-81
2023/11/27 18:28:52;;;;;;;;;;;2.70;1.00;;;;;;5014199;28;19947;-81
2023/11/27 18:31:22;;;;;;;;;;;;;;;;;;4997497;28;20391;-81
2023/11/27 18:33:47;;;;;;;;;;;2.50;1.00;;;;;;5018508;28;19913;-72
2023/11/27 18:36:13;;;;;;;;;;;2.50;1.00;;;;;;5012340;28;19913;-72
2023/11/27 18:38:40;;;;;;;;;;;2.40;1.00;;;;;;5014504;28;19914;-76
2023/11/27 18:41:22;;;;;;;;;;;2.30;1.00;;;;;;5014258;28;19921;-78
2023/11/27 18:43:54;;;;;;;;;;;2.30;1.00;;;;;;5012481;28;19964;-75
2023/11/27 18:46:24;;;;;;;;;;;2.40;1.00;;;;;;5012680;28;19916;-76